Time;durP1;ratioP1;P1;durP2;ratioP2;P2;SDS_P1;SDS_P2;PMS_P1;PMS_P2;Temp;Humidity;BMP_temperature;BMP_pressure;BME280_temperature;BME280_humidity;BME280_pressure;Samples;Min_cycle;Max_cycle;Signal;HPM_P1;HPM_P2
2023/04/23 00:00:51;;;;;;;;;2.67;2.67;;;;;13.34;63.00;100511.16;5100140;27;45364;-43
2023/04/23 00:03:18;;;;;;;;;1.67;1.00;;;;;13.30;63.46;100506.34;5099509;27;46339;-44
2023/04/23 00:05:44;;;;;;;;;2.67;2.00;;;;;13.25;63.10;100509.53;5099282;27;45431;-45
2023/04/23 00:08:10;;;;;;;;;4.00;2.33;;;;;13.26;63.42;100511.19;5099850;27;45559;-44
2023/04/23 00:10:36;;;;;;;;;2.00;2.00;;;;;13.22;63.72;100513.34;5115500;27;45510;-45
2023/04/23 00:13:02;;;;;;;;;2.00;1.00;;;;;13.20;63.03;100514.50;5099462;27;46277;-44
2023/04/23 00:15:28;;;;;;;;;2.00;2.00;;;;;13.15;63.97;100511.53;5099397;27;45407;-44
2023/04/23 00:17:53;;;;;;;;;2.67;2.00;;;;;13.15;64.35;100520.38;5099309;27;45325;-44
2023/04/23 00:20:19;;;;;;;;;2.00;2.00;;;;;13.16;64.12;100522.03;5100069;27;45408;-46
2023/04/23 00:22:44;;;;;;;;;3.00;3.00;;;;;13.12;64.15;100512.69;5099474;27;45314;-48
2023/04/23 00:25:10;;;;;;;;;3.67;2.00;;;;;13.16;64.16;100524.69;5099908;27;46885;-43
2023/04/23 00:27:35;;;;;;;;;5.67;2.00;;;;;13.18;63.73;100524.53;5098671;27;45354;-42
2023/04/23 00:30:02;;;;;;;;;3.67;2.00;;;;;13.17;63.80;100513.00;5099500;27;45306;-43
2023/04/23 00:32:28;;;;;;;;;2.00;2.00;;;;;13.13;64.27;100517.00;5098453;27;46424;-43
2023/04/23 00:34:54;;;;;;;;;2.00;2.00;;;;;13.09;64.45;100513.00;5098902;27;45318;-45
2023/04/23 00:37:19;;;;;;;;;2.00;2.00;;;;;13.08;64.60;100510.53;5099154;27;45381;-44
2023/04/23 00:39:45;;;;;;;;;3.00;1.00;;;;;13.08;64.38;100522.03;5099358;27;45415;-42
2023/04/23 00:42:11;;;;;;;;;1.00;1.00;;;;;13.06;63.11;100508.03;5098860;27;45958;-43
2023/04/23 00:44:40;;;;;;;;;3.00;1.00;;;;;13.03;64.78;100507.53;5098924;27;45432;-43
2023/04/23 00:47:06;;;;;;;;;2.00;2.00;;;;;13.05;64.88;100518.88;5098912;27;45394;-42
2023/04/23 00:49:33;;;;;;;;;8.00;2.33;;;;;13.02;65.06;100514.72;5099064;27;45423;-43
2023/04/23 00:51:59;;;;;;;;;6.00;2.00;;;;;13.00;64.55;100514.03;5114604;27;45425;-43
2023/04/23 00:54:24;;;;;;;;;1.00;0.33;;;;;13.01;65.25;100507.69;5098463;27;45482;-42
2023/04/23 00:56:51;;;;;;;;;4.00;2.00;;;;;13.01;65.30;100505.00;5098580;27;45251;-43
2023/04/23 00:59:17;;;;;;;;;5.00;2.67;;;;;12.97;65.63;100501.00;5098962;27;45462;-44
2023/04/23 01:01:44;;;;;;;;;3.33;3.33;;;;;12.91;65.47;100502.53;5098594;27;46260;-43
2023/04/23 01:04:11;;;;;;;;;4.33;2.33;;;;;12.89;65.88;100496.53;5098698;27;45244;-43
2023/04/23 01:06:37;;;;;;;;;2.67;2.00;;;;;12.86;66.16;100493.34;5098727;27;45337;-44
2023/04/23 01:09:02;;;;;;;;;1.00;1.00;;;;;12.82;64.66;100497.38;5098848;27;45175;-42
2023/04/23 01:11:28;;;;;;;;;2.00;2.00;;;;;12.78;66.05;100488.84;5098524;27;45443;-50
2023/04/23 01:13:55;;;;;;;;;3.00;2.00;;;;;12.77;66.56;100494.34;5080326;27;46182;-43
2023/04/23 01:16:20;;;;;;;;;1.67;1.00;;;;;12.70;66.60;100489.69;5098772;27;45368;-43
2023/04/23 01:18:46;;;;;;;;;1.67;1.33;;;;;12.66;66.75;100483.00;5098579;27;45431;-45
2023/04/23 01:21:13;;;;;;;;;2.00;2.00;;;;;12.64;66.55;100482.34;5098284;27;46092;-44
2023/04/23 01:23:39;;;;;;;;;1.00;1.00;;;;;12.63;67.40;100480.66;5098587;27;45479;-44
2023/04/23 01:26:06;;;;;;;;;3.67;2.00;;;;;12.59;67.60;100473.97;5098298;27;45487;-45
2023/04/23 01:28:32;;;;;;;;;1.00;1.00;;;;;12.56;67.94;100474.34;5099111;27;45404;-44
2023/04/23 01:30:58;;;;;;;;;4.00;2.33;;;;;12.53;67.28;100477.34;5098127;27;45779;-44
2023/04/23 01:33:25;;;;;;;;;3.00;2.33;;;;;12.51;67.76;100475.81;5098182;27;45421;-51
2023/04/23 01:35:50;;;;;;;;;2.00;2.00;;;;;12.48;68.05;100477.00;5098398;27;45294;-46
2023/04/23 01:38:17;;;;;;;;;1.33;1.33;;;;;12.39;68.04;100465.50;5098487;27;45320;-43
2023/04/23 01:40:43;;;;;;;;;3.33;1.33;;;;;12.41;68.32;100467.97;5098183;27;47211;-43
2023/04/23 01:43:08;;;;;;;;;3.00;3.00;;;;;12.38;68.24;100486.97;5097795;27;45260;-44
2023/04/23 01:45:34;;;;;;;;;6.00;3.00;;;;;12.33;69.24;100478.63;5098306;27;45306;-44
2023/04/23 01:47:59;;;;;;;;;3.67;3.00;;;;;12.29;69.13;100467.47;5098452;27;45473;-44
2023/04/23 01:50:26;;;;;;;;;1.00;1.00;;;;;12.26;68.47;100467.78;5097979;27;46960;-44
2023/04/23 01:52:52;;;;;;;;;5.33;2.00;;;;;12.19;68.86;100456.94;5097240;27;45172;-45
2023/04/23 01:55:20;;;;;;;;;2.00;2.00;;;;;12.19;69.72;100461.47;5098176;27;45391;-44
2023/04/23 01:57:45;;;;;;;;;1.00;1.00;;;;;12.14;69.64;100458.44;5097962;27;45452;-46
2023/04/23 02:00:12;;;;;;;;;2.00;2.00;;;;;12.11;69.64;100454.28;5097990;27;45403;-45
2023/04/23 02:02:39;;;;;;;;;3.67;2.00;;;;;12.05;70.46;100443.41;5097870;27;45294;-43
2023/04/23 02:05:10;;;;;;;;;2.33;1.33;;;;;12.03;71.32;100446.25;5097851;27;45398;-44
2023/04/23 02:07:35;;;;;;;;;4.00;2.33;;;;;12.01;70.31;100445.59;5097481;27;45551;-44
2023/04/23 02:10:01;;;;;;;;;3.00;3.00;;;;;11.93;70.00;100440.25;5097454;27;46400;-44
2023/04/23 02:12:27;;;;;;;;;4.67;3.00;;;;;11.94;70.72;100440.06;5097790;27;45479;-43
2023/04/23 02:14:53;;;;;;;;;3.00;3.00;;;;;11.93;70.88;100450.91;5097865;27;45443;-42
2023/04/23 02:17:20;;;;;;;;;5.33;3.33;;;;;11.88;70.70;100450.53;5097972;27;45655;-45
2023/04/23 02:19:45;;;;;;;;;6.00;5.67;;;;;11.74;71.11;100428.81;5097005;27;46390;-45
2023/04/23 02:22:11;;;;;;;;;4.33;3.00;;;;;11.84;71.05;100451.84;5097606;27;45268;-45
2023/04/23 02:24:37;;;;;;;;;8.33;4.67;;;;;11.82;69.89;100452.00;5097832;27;45285;-46
2023/04/23 02:27:03;;;;;;;;;7.00;3.00;;;;;11.79;71.55;100459.47;5097840;27;45578;-45
2023/04/23 02:29:28;;;;;;;;;5.00;3.67;;;;;11.76;71.63;100451.81;5097348;27;46503;-45
2023/04/23 02:31:54;;;;;;;;;4.00;3.00;;;;;11.74;71.34;100452.78;5113186;27;45317;-44
2023/04/23 02:34:19;;;;;;;;;3.33;3.33;;;;;11.69;71.83;100456.94;5097540;27;45381;-46
2023/04/23 02:36:44;;;;;;;;;7.33;4.33;;;;;11.64;71.81;100459.28;5079286;27;45383;-45
2023/04/23 02:39:10;;;;;;;;;3.00;2.67;;;;;11.62;72.13;100451.41;5097204;27;47369;-48
2023/04/23 02:41:35;;;;;;;;;4.00;4.00;;;;;11.56;72.34;100444.06;5097109;27;45338;-42
2023/04/23 02:44:00;;;;;;;;;6.00;3.33;;;;;11.58;72.83;100446.56;5097349;27;45489;-42
2023/04/23 02:46:26;;;;;;;;;4.67;4.67;;;;;11.53;72.87;100439.06;5097526;27;45275;-46
2023/04/23 02:48:51;;;;;;;;;7.67;6.00;;;;;11.37;72.47;100421.19;5097244;27;45411;-45
2023/04/23 02:51:17;;;;;;;;;3.00;3.00;;;;;11.45;73.90;100441.69;5096999;27;45439;-41
2023/04/23 02:53:42;;;;;;;;;4.00;4.00;;;;;11.39;73.56;100437.00;5078702;27;45331;-43
2023/04/23 02:56:07;;;;;;;;;4.33;4.33;;;;;11.35;73.26;100431.16;5078995;27;45503;-45
2023/04/23 02:58:33;;;;;;;;;2.67;2.67;;;;;11.34;74.29;100436.66;5096950;27;46177;-43
2023/04/23 03:00:59;;;;;;;;;8.00;5.33;;;;;11.28;73.67;100424.81;5097158;27;45244;-45
2023/04/23 03:03:30;;;;;;;;;9.00;5.00;;;;;11.27;73.81;100440.94;5096853;27;45438;-44
2023/04/23 03:05:56;;;;;;;;;3.00;3.00;;;;;11.26;74.04;100441.94;5097087;27;45425;-45
2023/04/23 03:08:21;;;;;;;;;3.00;3.00;;;;;11.21;74.36;100435.28;5096992;27;45372;-43
2023/04/23 03:10:47;;;;;;;;;5.00;5.00;;;;;11.18;74.38;100430.25;5096639;27;45348;-45
2023/04/23 03:13:12;;;;;;;;;8.33;4.00;;;;;11.15;74.04;100421.75;5096738;27;45559;-44
2023/04/23 03:15:38;;;;;;;;;6.00;3.67;;;;;11.15;73.63;100432.38;5097068;27;45443;-45
2023/04/23 03:18:05;;;;;;;;;6.33;4.67;;;;;11.13;74.62;100426.41;5096767;27;46405;-44
2023/04/23 03:20:30;;;;;;;;;4.67;4.67;;;;;11.09;74.77;100417.91;5113931;27;45403;-44
2023/04/23 03:22:56;;;;;;;;;5.67;5.00;;;;;11.08;74.60;100418.03;5100085;27;45466;-44
2023/04/23 03:25:23;;;;;;;;;6.67;4.00;;;;;11.06;74.51;100412.88;5100480;27;45322;-45
2023/04/23 03:27:49;;;;;;;;;7.00;3.33;;;;;11.04;74.82;100406.03;5099896;27;47072;-43
2023/04/23 03:30:14;;;;;;;;;6.67;3.33;;;;;11.00;75.04;100405.53;5100035;27;45436;-44
2023/04/23 03:32:40;;;;;;;;;8.00;3.00;;;;;10.98;74.83;100402.19;5100271;27;45421;-43
2023/04/23 03:35:05;;;;;;;;;4.00;3.67;;;;;10.99;75.44;100403.84;5100281;27;45486;-43
2023/04/23 03:37:30;;;;;;;;;6.00;4.00;;;;;10.95;75.21;100405.97;5099753;27;46275;-43
2023/04/23 03:39:56;;;;;;;;;6.33;5.00;;;;;10.92;76.21;100403.66;5100139;27;45444;-45
2023/04/23 03:42:21;;;;;;;;;3.67;3.67;;;;;10.91;75.55;100395.81;5099917;27;45541;-44
2023/04/23 03:44:46;;;;;;;;;5.33;2.33;;;;;10.89;76.17;100403.97;5100027;27;45478;-45
2023/04/23 03:47:12;;;;;;;;;8.67;6.67;;;;;10.86;76.26;100404.25;5099504;27;52220;-44
2023/04/23 03:49:37;;;;;;;;;8.33;4.00;;;;;10.82;75.64;100413.56;5099933;27;45430;-44
2023/04/23 03:52:03;;;;;;;;;5.33;4.00;;;;;10.80;75.72;100401.41;5100008;27;45360;-45
2023/04/23 03:54:28;;;;;;;;;8.00;4.67;;;;;10.77;75.52;100397.22;5099940;27;45187;-42
2023/04/23 03:56:54;;;;;;;;;9.00;4.67;;;;;10.79;76.25;100397.94;5099622;27;45401;-45
2023/04/23 03:59:19;;;;;;;;;6.67;6.67;;;;;10.73;76.33;100394.03;5099646;27;45229;-44
2023/04/23 04:01:47;;;;;;;;;8.00;5.00;;;;;10.74;75.88;100393.06;5099669;27;45384;-44
2023/04/23 04:04:13;;;;;;;;;4.00;4.00;;;;;10.72;75.36;100396.88;5099921;27;45456;-42
2023/04/23 04:06:38;;;;;;;;;6.33;6.00;;;;;10.71;75.81;100405.84;5099358;27;47220;-44
2023/04/23 04:09:03;;;;;;;;;8.00;6.00;;;;;10.69;76.11;100400.66;5099566;27;45395;-43
2023/04/23 04:11:29;;;;;;;;;3.00;3.00;;;;;10.68;75.67;100403.50;5099566;27;45366;-44
2023/04/23 04:13:54;;;;;;;;;9.33;5.33;;;;;10.69;76.05;100402.50;5099539;27;45390;-44
2023/04/23 04:16:19;;;;;;;;;6.00;3.33;;;;;10.67;76.15;100384.03;5099559;27;45486;-43
2023/04/23 04:18:44;;;;;;;;;5.00;5.00;;;;;10.67;75.78;100377.88;5099273;27;45522;-45
2023/04/23 04:21:10;;;;;;;;;5.00;5.00;;;;;10.66;75.50;100381.50;5099593;27;45445;-45
2023/04/23 04:23:36;;;;;;;;;3.00;3.00;;;;;10.61;75.69;100381.97;5099631;27;45464;-45
2023/04/23 04:26:01;;;;;;;;;6.00;3.00;;;;;10.59;76.13;100377.84;5099089;27;46119;-44
2023/04/23 04:28:26;;;;;;;;;5.00;5.00;;;;;10.58;75.83;100376.16;5099245;27;45506;-47
2023/04/23 04:30:52;;;;;;;;;5.33;5.00;;;;;10.55;75.63;100374.66;5098768;27;45294;-44
2023/04/23 04:33:19;;;;;;;;;4.33;3.00;;;;;10.53;75.66;100376.59;5099333;27;45508;-43
2023/04/23 04:35:45;;;;;;;;;3.67;3.67;;;;;10.54;76.00;100386.28;5098882;27;46592;-43
2023/04/23 04:38:11;;;;;;;;;5.33;4.67;;;;;10.47;75.26;100366.59;5098028;27;45183;-47
2023/04/23 04:40:36;;;;;;;;;6.33;4.00;;;;;10.51;75.60;100381.25;5099022;27;45348;-44
2023/04/23 04:43:04;;;;;;;;;7.00;5.00;;;;;10.53;75.67;100379.25;5099029;27;45308;-44
2023/04/23 04:45:29;;;;;;;;;7.00;5.00;;;;;10.55;75.65;100377.31;5098864;27;45654;-44
2023/04/23 04:47:54;;;;;;;;;7.00;4.00;;;;;10.51;75.53;100353.84;5098820;27;45411;-45
2023/04/23 04:50:20;;;;;;;;;7.33;5.00;;;;;10.64;75.95;100365.72;5099044;27;45277;-43
2023/04/23 04:52:45;;;;;;;;;5.33;3.67;;;;;10.61;75.70;100358.03;5099277;27;45361;-46
2023/04/23 04:55:10;;;;;;;;;6.00;4.33;;;;;10.67;75.37;100357.44;5098663;27;45427;-44
2023/04/23 04:57:36;;;;;;;;;6.00;5.67;;;;;10.71;75.23;100355.31;5098838;27;45457;-44
2023/04/23 05:00:26;;;;;;;;;2.67;2.00;;;;;10.74;74.61;100349.66;5098841;27;45742;-43
2023/04/23 05:02:52;;;;;;;;;2.00;2.00;;;;;10.77;74.24;100345.84;5099051;27;45599;-45
2023/04/23 05:05:18;;;;;;;;;4.33;3.67;;;;;10.80;74.17;100337.56;5098486;27;45907;-45
2023/04/23 05:07:44;;;;;;;;;6.00;2.00;;;;;10.70;74.99;100325.22;5098803;27;45475;-46
2023/04/23 05:10:10;;;;;;;;;3.67;2.00;;;;;10.82;74.29;100348.88;5098572;27;45400;-44
2023/04/23 05:12:36;;;;;;;;;5.00;2.67;;;;;10.81;74.83;100349.88;5098661;27;45304;-45
2023/04/23 05:15:01;;;;;;;;;2.67;2.00;;;;;10.84;74.13;100344.22;5098394;27;46417;-44
2023/04/23 05:17:27;;;;;;;;;3.00;3.00;;;;;10.86;74.24;100355.53;5098422;27;45353;-46
2023/04/23 05:19:52;;;;;;;;;5.00;2.00;;;;;10.85;74.44;100348.56;5098576;27;45445;-44
2023/04/23 05:22:17;;;;;;;;;7.00;2.00;;;;;10.84;74.77;100344.22;5098728;27;45492;-43
2023/04/23 05:24:44;;;;;;;;;3.33;2.00;;;;;10.80;74.36;100343.72;5098502;27;46453;-42
2023/04/23 05:27:10;;;;;;;;;3.00;3.00;;;;;10.84;74.23;100349.56;5098211;27;45431;-43
2023/04/23 05:29:35;;;;;;;;;1.00;1.00;;;;;10.84;74.53;100346.91;5098249;27;45222;-45
2023/04/23 05:32:00;;;;;;;;;7.33;2.00;;;;;10.82;73.52;100341.72;5098630;27;45164;-45
2023/04/23 05:34:25;;;;;;;;;3.00;1.33;;;;;10.83;74.46;100345.19;5098255;27;45353;-44
2023/04/23 05:36:51;;;;;;;;;5.00;1.00;;;;;10.83;74.00;100346.06;5098386;27;45365;-44
2023/04/23 05:39:16;;;;;;;;;6.00;2.00;;;;;10.83;74.32;100339.88;5098231;27;45332;-43
2023/04/23 05:41:42;;;;;;;;;1.00;1.00;;;;;10.83;74.07;100337.22;5098243;27;45224;-45
2023/04/23 05:44:07;;;;;;;;;7.00;3.00;;;;;10.85;74.11;100337.91;5096924;27;46070;-43
2023/04/23 05:46:32;;;;;;;;;5.67;3.00;;;;;10.86;73.64;100327.09;5079569;27;45391;-43
2023/04/23 05:48:58;;;;;;;;;3.00;3.00;;;;;10.91;74.07;100332.81;5098313;27;45236;-44
2023/04/23 05:51:23;;;;;;;;;1.67;1.67;;;;;10.94;73.77;100321.81;5098288;27;45381;-43
2023/04/23 05:53:48;;;;;;;;;2.67;2.67;;;;;10.94;73.01;100323.66;5097823;27;45565;-43
2023/04/23 05:56:14;;;;;;;;;3.67;3.67;;;;;10.88;73.79;100308.34;5098070;27;45279;-43
2023/04/23 05:58:39;;;;;;;;;11.67;3.00;;;;;10.98;72.86;100323.16;5097894;27;45489;-46
2023/04/23 06:01:05;;;;;;;;;5.00;2.00;;;;;10.97;73.02;100332.16;5098244;27;45360;-44
2023/04/23 06:03:30;;;;;;;;;6.00;3.67;;;;;10.95;73.83;100327.97;5097617;27;46011;-45
2023/04/23 06:05:55;;;;;;;;;2.00;2.00;;;;;10.98;73.43;100332.97;5097682;27;45414;-44
2023/04/23 06:08:21;;;;;;;;;2.67;2.67;;;;;10.93;73.44;100320.16;5079546;27;45400;-44
2023/04/23 06:10:46;;;;;;;;;1.33;1.33;;;;;10.94;72.81;100324.47;5097854;27;45256;-44
2023/04/23 06:13:11;;;;;;;;;6.33;5.00;;;;;10.98;73.80;100323.16;5097487;27;45432;-45
2023/04/23 06:15:37;;;;;;;;;6.33;3.00;;;;;10.97;73.36;100315.34;5097663;27;45381;-45
2023/04/23 06:18:02;;;;;;;;;3.33;2.33;;;;;10.99;73.74;100316.00;5096502;27;45463;-43
2023/04/23 06:20:28;;;;;;;;;3.67;3.33;;;;;11.01;73.66;100318.53;5098187;27;45467;-43
2023/04/23 06:22:54;;;;;;;;;5.00;5.00;;;;;11.04;73.41;100327.03;5097435;27;45256;-45
2023/04/23 06:25:19;;;;;;;;;5.00;5.00;;;;;11.06;72.37;100329.53;5097488;27;45375;-44
2023/04/23 06:27:45;;;;;;;;;6.67;5.00;;;;;11.06;73.08;100326.88;5097339;27;45430;-44
2023/04/23 06:30:10;;;;;;;;;8.33;6.33;;;;;11.01;73.72;100326.53;5097531;27;45331;-44
2023/04/23 06:32:36;;;;;;;;;6.00;6.00;;;;;11.00;74.12;100325.69;5097364;27;47282;-44
2023/04/23 06:35:01;;;;;;;;;7.00;4.67;;;;;11.06;73.91;100318.88;5097342;27;45265;-44
2023/04/23 06:37:27;;;;;;;;;3.67;3.00;;;;;11.09;73.74;100308.75;5097502;27;45339;-44
2023/04/23 06:39:52;;;;;;;;;5.33;5.33;;;;;11.05;73.88;100294.09;5097693;27;45266;-43
2023/04/23 06:42:17;;;;;;;;;5.00;5.00;;;;;11.21;73.69;100306.63;5078976;27;47255;-43
2023/04/23 06:44:43;;;;;;;;;13.33;6.33;;;;;11.23;74.20;100308.13;5097011;27;45222;-44
2023/04/23 06:47:08;;;;;;;;;7.00;5.00;;;;;11.15;73.85;100281.47;5079069;27;45174;-43
2023/04/23 06:49:34;;;;;;;;;7.33;6.00;;;;;11.29;73.76;100313.78;5097425;27;45380;-43
2023/04/23 06:51:59;;;;;;;;;5.67;4.33;;;;;11.29;73.97;100305.81;5096995;27;46103;-44
2023/04/23 06:54:25;;;;;;;;;6.00;6.00;;;;;11.30;74.54;100292.34;5098239;27;45527;-42
2023/04/23 06:56:51;;;;;;;;;7.00;4.00;;;;;11.30;74.52;100294.19;5100657;27;45319;-43
2023/04/23 06:59:16;;;;;;;;;7.33;6.00;;;;;11.29;75.27;100290.66;5100538;27;45425;-44
2023/04/23 07:01:41;;;;;;;;;7.67;6.33;;;;;11.32;75.27;100298.34;5100573;27;46091;-42
2023/04/23 07:04:07;;;;;;;;;9.33;6.00;;;;;11.30;75.65;100300.34;5100534;27;45317;-43
2023/04/23 07:06:33;;;;;;;;;7.67;4.00;;;;;11.30;76.01;100304.84;5100501;27;45556;-43
2023/04/23 07:08:59;;;;;;;;;7.67;7.33;;;;;11.26;77.19;100301.66;5100653;27;45442;-44
2023/04/23 07:11:24;;;;;;;;;5.00;5.00;;;;;11.27;77.13;100287.34;5100155;27;46214;-44
2023/04/23 07:13:50;;;;;;;;;3.00;3.00;;;;;11.25;77.11;100273.38;5100145;27;45215;-42
2023/04/23 07:16:15;;;;;;;;;7.33;7.00;;;;;11.33;77.46;100278.69;5082180;27;45259;-42
2023/04/23 07:18:41;;;;;;;;;9.67;9.67;;;;;11.38;77.14;100281.72;5100482;27;45542;-43
2023/04/23 07:21:06;;;;;;;;;9.67;7.00;;;;;11.35;78.47;100284.69;5100305;27;46169;-44
2023/04/23 07:23:31;;;;;;;;;6.67;6.00;;;;;11.35;78.25;100276.72;5100304;27;45369;-46
2023/04/23 07:25:57;;;;;;;;;9.33;8.00;;;;;11.39;77.44;100277.22;5100315;27;45265;-45
2023/04/23 07:28:22;;;;;;;;;6.33;6.00;;;;;11.39;78.53;100277.22;5100512;27;45404;-43
2023/04/23 07:30:47;;;;;;;;;9.33;7.33;;;;;11.41;79.10;100273.38;5099827;27;46876;-43
2023/04/23 07:33:13;;;;;;;;;8.67;8.67;;;;;11.39;78.33;100271.91;5099998;27;45224;-45
2023/04/23 07:35:38;;;;;;;;;11.00;7.00;;;;;11.34;78.36;100256.41;5081686;27;45409;-42
2023/04/23 07:38:04;;;;;;;;;9.33;8.67;;;;;11.38;79.59;100262.25;5100130;27;45374;-45
2023/04/23 07:40:29;;;;;;;;;6.33;6.00;;;;;11.38;79.03;100265.75;5099915;27;46490;-42
2023/04/23 07:42:55;;;;;;;;;9.00;8.00;;;;;11.38;79.54;100247.09;5099739;27;45357;-42
2023/04/23 07:45:21;;;;;;;;;10.67;7.67;;;;;11.47;79.63;100242.63;5099819;27;45471;-44
2023/04/23 07:47:48;;;;;;;;;7.00;5.33;;;;;11.46;80.10;100246.25;5100196;27;45433;-45
2023/04/23 07:50:14;;;;;;;;;9.00;6.67;;;;;11.52;79.63;100256.25;5099898;27;45253;-44
2023/04/23 07:52:40;;;;;;;;;10.00;8.33;;;;;11.59;79.39;100257.28;5099824;27;45330;-47
2023/04/23 07:55:06;;;;;;;;;11.67;8.67;;;;;11.69;78.86;100267.78;5099945;27;45443;-45
2023/04/23 07:57:31;;;;;;;;;11.00;10.67;;;;;11.71;79.45;100266.63;5100018;27;45202;-45
2023/04/23 07:59:56;;;;;;;;;10.67;9.33;;;;;11.74;80.03;100252.13;5099345;27;46489;-44
2023/04/23 08:02:24;;;;;;;;;8.67;8.67;;;;;11.79;79.40;100248.94;5081417;27;45205;-44
2023/04/23 08:04:50;;;;;;;;;9.67;9.67;;;;;11.77;80.44;100237.63;5099893;27;45428;-43
2023/04/23 08:07:15;;;;;;;;;12.67;8.00;;;;;11.85;79.85;100229.66;5098803;27;45444;-44
2023/04/23 08:09:41;;;;;;;;;14.00;9.33;;;;;11.82;79.75;100198.00;5099531;27;45450;-44
2023/04/23 08:12:07;;;;;;;;;8.33;7.33;;;;;11.95;80.02;100217.81;5099459;27;45828;-43
2023/04/23 08:14:32;;;;;;;;;11.67;9.33;;;;;11.98;79.98;100212.16;5099528;27;45258;-44
2023/04/23 08:16:57;;;;;;;;;11.00;8.67;;;;;12.04;80.58;100207.97;5099715;27;45359;-44
2023/04/23 08:19:23;;;;;;;;;12.00;10.67;;;;;12.14;79.31;100194.47;5080771;27;47555;-45
2023/04/23 08:21:48;;;;;;;;;9.67;9.67;;;;;12.21;79.78;100188.28;5099441;27;45267;-44
2023/04/23 08:24:13;;;;;;;;;10.00;8.67;;;;;12.35;78.68;100177.94;5099491;27;45327;-43
2023/04/23 08:26:39;;;;;;;;;13.67;10.00;;;;;12.42;79.21;100173.53;5099720;27;45300;-44
2023/04/23 08:29:04;;;;;;;;;7.33;6.33;;;;;12.40;78.91;100159.56;5098852;27;47021;-42
2023/04/23 08:31:30;;;;;;;;;10.33;7.67;;;;;12.35;78.20;100141.41;5099170;27;45276;-43
2023/04/23 08:33:56;;;;;;;;;11.33;8.33;;;;;12.33;79.49;100137.25;5099280;27;45179;-44
2023/04/23 08:36:21;;;;;;;;;9.00;9.00;;;;;12.36;78.49;100128.91;5099515;27;45362;-44
2023/04/23 08:38:47;;;;;;;;;15.67;12.00;;;;;12.35;79.23;100122.75;5099067;27;46381;-46
2023/04/23 08:41:14;;;;;;;;;13.67;8.00;;;;;12.40;79.00;100130.22;5098995;27;45161;-45
2023/04/23 08:43:59;;;;;;;;;8.00;8.00;;;;;12.41;78.96;100122.03;5099090;27;45416;-45
2023/04/23 08:46:28;;;;;;;;;11.33;8.33;;;;;12.48;78.50;100119.50;5099027;27;45397;-45
2023/04/23 08:48:55;;;;;;;;;11.00;8.00;;;;;12.55;78.51;100101.78;5098837;27;46331;-46
2023/04/23 08:51:24;;;;;;;;;10.00;8.67;;;;;12.52;78.53;100102.16;5092253;27;45446;-45
2023/04/23 08:53:54;;;;;;;;;13.00;9.00;;;;;12.43;78.20;100080.03;5086266;27;45530;-42
2023/04/23 08:56:20;;;;;;;;;10.00;7.00;;;;;12.47;79.08;100075.16;5095912;27;45412;-44
2023/04/23 08:58:46;;;;;;;;;9.33;8.33;;;;;12.55;79.17;100074.28;5095621;27;46133;-46
2023/04/23 09:01:11;;;;;;;;;13.00;12.00;;;;;12.66;78.50;100066.72;5095500;27;45292;-45
2023/04/23 09:03:39;;;;;;;;;13.67;10.33;;;;;12.71;78.03;100067.00;5092175;27;45567;-45
2023/04/23 09:06:05;;;;;;;;;10.00;7.33;;;;;12.82;78.29;100072.94;5095779;27;45403;-44
2023/04/23 09:08:31;;;;;;;;;14.00;12.00;;;;;12.98;77.95;100062.97;5095542;27;46037;-45
2023/04/23 09:11:00;;;;;;;;;9.33;9.33;;;;;13.08;78.14;100048.56;5095937;27;45431;-44
2023/04/23 09:13:25;;;;;;;;;12.67;9.33;;;;;13.25;77.26;100038.59;5095128;27;45512;-45
2023/04/23 09:15:51;;;;;;;;;12.67;9.00;;;;;13.30;76.92;100037.03;5095253;27;45495;-44
2023/04/23 09:18:18;;;;;;;;;15.00;8.00;;;;;13.43;75.75;100015.84;5095331;27;46191;-46
2023/04/23 09:20:44;;;;;;;;;11.00;8.00;;;;;13.76;74.86;100028.88;5094847;27;45431;-46
2023/04/23 09:23:13;;;;;;;;;10.67;9.00;;;;;13.93;74.20;100019.63;5095343;27;45590;-45
2023/04/23 09:25:38;;;;;;;;;10.00;7.00;;;;;14.12;73.55;100012.88;5095495;27;45415;-47
2023/04/23 09:28:07;;;;;;;;;8.67;8.67;;;;;14.38;73.08;99998.16;5095411;27;47312;-45
2023/04/23 09:30:38;;;;;;;;;5.00;5.00;;;;;14.51;72.06;99987.59;5095159;27;45345;-44
2023/04/23 09:33:04;;;;;;;;;9.33;8.00;;;;;14.32;71.76;99982.84;5095169;27;45460;-43
2023/04/23 09:35:34;;;;;;;;;8.33;6.67;;;;;14.12;72.74;99979.97;5095917;27;45480;-43
2023/04/23 09:38:04;;;;;;;;;8.00;7.00;;;;;13.98;73.17;99977.09;5094909;27;46745;-46
2023/04/23 09:40:29;;;;;;;;;11.33;7.33;;;;;13.91;73.11;99989.59;5094760;27;45506;-45
2023/04/23 09:42:55;;;;;;;;;9.00;5.33;;;;;13.91;72.80;99978.91;5095147;27;45279;-42
2023/04/23 09:45:21;;;;;;;;;9.33;9.00;;;;;13.89;73.22;99980.09;5095189;27;45538;-42
2023/04/23 09:47:57;;;;;;;;;5.00;4.33;;;;;13.86;72.82;99959.06;5094834;27;46535;-46
2023/04/23 09:50:42;;;;;;;;;10.33;7.00;;;;;13.95;72.75;99956.13;5095334;27;45394;-43
2023/04/23 09:53:09;;;;;;;;;8.00;8.00;;;;;14.07;72.11;99950.25;5094119;27;45329;-44
2023/04/23 09:55:37;;;;;;;;;11.33;10.00;;;;;14.10;72.46;99966.75;5095120;27;45542;-45
2023/04/23 09:58:10;;;;;;;;;8.67;8.67;;;;;14.09;72.40;99965.09;5094147;27;46914;-46
2023/04/23 10:00:38;;;;;;;;;8.67;6.33;;;;;14.11;72.24;99951.53;5094164;27;45507;-46
2023/04/23 10:03:05;;;;;;;;;9.67;9.67;;;;;14.05;71.83;99955.81;5094805;27;45545;-44
2023/04/23 10:05:31;;;;;;;;;13.00;9.00;;;;;13.86;72.34;99917.16;5093876;27;45404;-45
2023/04/23 10:07:57;;;;;;;;;11.00;7.67;;;;;13.76;71.85;99921.94;5094448;27;46349;-45
2023/04/23 10:10:23;;;;;;;;;9.33;9.33;;;;;13.83;72.52;99948.75;5077070;27;45404;-45
2023/04/23 10:12:51;;;;;;;;;7.33;7.00;;;;;13.75;72.84;99939.00;5094736;27;45226;-45
2023/04/23 10:15:16;;;;;;;;;7.33;6.00;;;;;13.68;72.17;99936.22;5094541;27;45481;-46
2023/04/23 10:17:43;;;;;;;;;2.00;2.00;;;;;13.62;72.25;99930.81;5094711;27;46299;-44
2023/04/23 10:20:10;;;;;;;;;6.33;5.00;;;;;13.56;72.16;99927.03;5094536;27;45512;-47
2023/04/23 10:22:37;;;;;;;;;4.00;4.00;;;;;13.46;72.06;99927.31;5094467;27;45441;-49
2023/04/23 10:25:07;;;;;;;;;8.00;8.00;;;;;13.43;72.11;99927.69;5076586;27;45520;-47
2023/04/23 10:27:42;;;;;;;;;6.33;6.00;;;;;13.52;72.81;99916.91;5094632;27;46120;-45
2023/04/23 10:30:10;;;;;;;;;10.33;8.00;;;;;13.57;72.83;99901.13;5096063;27;45500;-44
2023/04/23 10:32:37;;;;;;;;;10.67;7.00;;;;;13.60;72.67;99895.44;5112867;27;45526;-47
2023/04/23 10:35:03;;;;;;;;;9.00;8.67;;;;;13.62;72.10;99859.50;5098446;27;45399;-44
2023/04/23 10:37:29;;;;;;;;;8.67;7.00;;;;;13.85;71.25;99888.72;5097939;27;46774;-44
2023/04/23 10:40:00;;;;;;;;;8.00;6.67;;;;;13.79;71.89;99894.03;5098317;27;45368;-43
2023/04/23 10:42:26;;;;;;;;;14.33;12.00;;;;;13.66;72.21;99874.13;5098009;27;45451;-44
2023/04/23 10:44:55;;;;;;;;;9.67;7.00;;;;;13.73;71.50;99883.03;5097832;27;45366;-43
2023/04/23 10:47:21;;;;;;;;;6.67;4.00;;;;;13.83;71.31;99871.25;5097842;27;46026;-43
2023/04/23 10:49:47;;;;;;;;;8.33;7.00;;;;;13.86;70.40;99841.44;5097606;27;45463;-47
2023/04/23 10:52:15;;;;;;;;;9.00;5.67;;;;;14.09;70.01;99859.97;5097029;27;45579;-45
2023/04/23 10:54:47;;;;;;;;;7.00;4.00;;;;;14.16;69.81;99847.50;5097181;27;45430;-45
2023/04/23 10:57:12;;;;;;;;;4.00;4.00;;;;;14.27;69.27;99835.44;5096627;27;46207;-45
2023/04/23 10:59:40;;;;;;;;;3.67;3.00;;;;;14.28;68.55;99810.34;5098130;27;45860;-47
2023/04/23 11:02:09;;;;;;;;;3.00;3.00;;;;;14.44;67.85;99821.59;5097623;27;45471;-44
2023/04/23 11:04:40;;;;;;;;;5.67;5.33;;;;;14.37;67.69;99815.38;5097889;27;45450;-43
2023/04/23 11:07:07;;;;;;;;;6.00;3.67;;;;;14.35;67.56;99803.22;5097523;27;47067;-44
2023/04/23 11:09:48;;;;;;;;;5.33;5.33;;;;;14.30;68.15;99797.63;5097508;27;45395;-45
2023/04/23 11:12:19;;;;;;;;;3.00;3.00;;;;;14.25;68.10;99790.19;5097493;27;45370;-45
2023/04/23 11:14:48;;;;;;;;;3.00;3.00;;;;;14.18;68.26;99783.94;5097141;27;45913;-45
2023/04/23 11:17:17;;;;;;;;;4.67;4.67;;;;;14.10;68.43;99782.22;5096636;27;46611;-44
2023/04/23 11:20:09;;;;;;;;;5.67;4.00;;;;;14.02;68.64;99784.22;5078733;27;45408;-46